Time;durP1;ratioP1;P1;durP2;ratioP2;P2;SDS_P1;SDS_P2;PMS_P1;PMS_P2;Temp;Humidity;BMP_temperature;BMP_pressure;BME280_temperature;BME280_humidity;BME280_pressure;Samples;Min_cycle;Max_cycle;Signal;HPM_P1;HPM_P2
2022/06/03 00:01:03;;;;;;;;;37.25;31.50;26.60;99.90;;;;;;5020932;28;8769;-71
2022/06/03 00:04:14;;;;;;;;;37.75;31.75;26.70;99.90;;;;;;5021898;28;8745;-69
2022/06/03 00:07:10;;;;;;;;;31.00;27.20;26.60;99.90;;;;;;5007580;28;8741;-70
2022/06/03 00:10:12;;;;;;;;;32.40;26.00;26.70;99.90;;;;;;5037570;28;9024;-72
2022/06/03 00:13:22;;;;;;;;;23.50;18.00;26.70;99.90;;;;;;5037933;28;8780;-71
2022/06/03 00:16:29;;;;;;;;;29.40;22.80;26.80;99.90;;;;;;4997535;28;8791;-67
2022/06/03 00:19:12;;;;;;;;;23.00;15.40;26.90;99.90;;;;;;5024103;28;9457;-71
2022/06/03 00:21:57;;;;;;;;;28.80;22.20;26.90;99.90;;;;;;5019956;28;8768;-69
2022/06/03 00:24:49;;;;;;;;;23.20;21.00;26.90;99.90;;;;;;5037412;28;9436;-70
2022/06/03 00:27:57;;;;;;;;;23.80;20.00;27.00;99.90;;;;;;5017915;28;8877;-70
2022/06/03 00:30:45;;;;;;;;;23.20;14.80;27.10;99.90;;;;;;4956995;28;8812;-69
2022/06/03 00:33:43;;;;;;;;;13.60;11.80;27.00;99.90;;;;;;4958219;28;8773;-69
2022/06/03 00:36:15;;;;;;;;;24.60;20.60;27.00;99.90;;;;;;5002898;28;8753;-68
2022/06/03 00:38:55;;;;;;;;;17.40;14.40;27.00;99.90;;;;;;5038186;28;8753;-73
2022/06/03 00:41:36;;;;;;;;;17.20;15.60;27.00;99.90;;;;;;5020235;28;8779;-67
2022/06/03 00:44:08;;;;;;;;;23.40;19.00;27.00;99.90;;;;;;5037763;28;8769;-71
2022/06/03 00:46:44;;;;;;;;;19.60;14.60;27.10;99.90;;;;;;5020101;28;8745;-67
2022/06/03 00:49:32;;;;;;;;;19.60;18.00;27.20;99.90;;;;;;5021228;28;8776;-71
2022/06/03 00:52:26;;;;;;;;;20.20;15.80;27.20;99.90;;;;;;5037534;28;8773;-67
2022/06/03 00:55:09;;;;;;;;;27.80;20.00;27.30;99.90;;;;;;5038427;28;8838;-67
2022/06/03 00:58:20;;;;;;;;;22.40;18.80;27.30;99.90;;;;;;5020374;28;8745;-64
2022/06/03 01:01:10;;;;;;;;;17.80;14.80;27.30;99.90;;;;;;4957027;28;9897;-72
2022/06/03 01:03:55;;;;;;;;;25.20;19.00;27.40;99.90;;;;;;4957066;28;8875;-70
2022/06/03 01:06:42;;;;;;;;;21.60;17.40;27.30;99.90;;;;;;5018150;28;9563;-57
2022/06/03 01:09:35;;;;;;;;;24.80;17.40;27.40;99.90;;;;;;5037163;28;8807;-71
2022/06/03 01:12:12;;;;;;;;;22.20;19.00;27.50;99.90;;;;;;5022659;28;8749;-70
2022/06/03 01:15:12;;;;;;;;;20.40;17.80;27.50;99.90;;;;;;4999543;28;8836;-68
2022/06/03 01:17:57;;;;;;;;;18.60;17.00;27.50;99.90;;;;;;5017213;28;8786;-74
2022/06/03 01:20:45;;;;;;;;;16.80;15.20;27.50;99.90;;;;;;5016824;28;8778;-72
2022/06/03 01:23:30;;;;;;;;;20.80;16.20;27.60;99.90;;;;;;5016172;28;8801;-64
2022/06/03 01:26:28;;;;;;;;;24.20;14.80;27.60;99.90;;;;;;4999356;28;8810;-73
2022/06/03 01:29:01;;;;;;;;;15.80;14.00;27.60;99.90;;;;;;5022815;28;8753;-70
2022/06/03 01:32:02;;;;;;;;;22.00;16.40;27.60;99.90;;;;;;5036426;28;9525;-64
2022/06/03 01:34:57;;;;;;;;;17.20;15.40;27.70;99.90;;;;;;5037042;28;8858;-71
2022/06/03 01:37:33;;;;;;;;;19.60;15.60;27.70;99.90;;;;;;5021171;28;8795;-68
2022/06/03 01:40:21;;;;;;;;;17.20;16.40;27.90;99.90;;;;;;5037358;28;8752;-63
2022/06/03 01:42:51;;;;;;;;;15.00;14.00;28.00;99.90;;;;;;5036391;28;8780;-71
2022/06/03 01:45:49;;;;;;;;;21.60;18.00;28.00;99.90;;;;;;5036678;28;8768;-68
2022/06/03 01:48:33;;;;;;;;;22.40;16.80;28.00;99.90;;;;;;5021461;28;8797;-71
2022/06/03 01:51:11;;;;;;;;;21.00;15.20;28.00;99.90;;;;;;5020745;28;8890;-71
2022/06/03 01:53:56;;;;;;;;;21.20;16.40;28.00;99.90;;;;;;5003918;28;8784;-65
2022/06/03 01:56:46;;;;;;;;;21.00;18.80;28.10;99.90;;;;;;5036218;28;8769;-73
2022/06/03 01:59:40;;;;;;;;;20.40;18.00;28.10;99.90;;;;;;5036605;28;8856;-66
2022/06/03 02:02:25;;;;;;;;;19.00;16.20;28.10;99.90;;;;;;5036725;28;8792;-72
2022/06/03 02:05:01;;;;;;;;;16.60;14.80;28.10;99.90;;;;;;5036659;28;8769;-67
2022/06/03 02:07:58;;;;;;;;;19.60;19.60;28.10;99.90;;;;;;4983669;28;8805;-66
2022/06/03 02:10:49;;;;;;;;;24.20;18.80;28.20;99.90;;;;;;5022155;28;8757;-67
2022/06/03 02:13:26;;;;;;;;;19.60;18.00;28.20;99.90;;;;;;5040721;28;8760;-71
2022/06/03 02:16:06;;;;;;;;;23.20;18.00;28.30;99.90;;;;;;5023213;28;8764;-69
2022/06/03 02:18:53;;;;;;;;;13.60;11.60;28.40;99.90;;;;;;5022597;28;8748;-69
2022/06/03 02:21:38;;;;;;;;;21.60;17.40;28.50;99.90;;;;;;5039935;28;8773;-68
2022/06/03 02:24:25;;;;;;;;;18.00;14.60;28.40;99.90;;;;;;5040106;28;8765;-67
2022/06/03 02:27:04;;;;;;;;;21.40;17.00;28.50;99.90;;;;;;5022626;28;8885;-71
2022/06/03 02:32:44;;;;;;;;;24.20;15.80;28.60;99.90;;;;;;5040012;28;9405;-72
2022/06/03 02:35:25;;;;;;;;;24.60;17.00;28.60;99.90;;;;;;5022657;28;8760;-67
2022/06/03 02:38:03;;;;;;;;;25.20;16.20;28.70;99.90;;;;;;5022710;28;8745;-68
2022/06/03 02:40:49;;;;;;;;;19.40;16.20;28.80;99.90;;;;;;5038365;28;8756;-69
2022/06/03 02:43:34;;;;;;;;;18.40;15.60;28.80;99.90;;;;;;5022488;28;8777;-66
2022/06/03 02:52:01;;;;;;;;;;;;;;;;;;;;;
2022/06/03 02:55:38;;;;;;;;;25.40;18.20;28.90;99.90;;;;;;5036269;28;8848;-92
2022/06/03 02:58:56;;;;;;;;;23.00;19.60;28.90;99.90;;;;;;5025202;28;8861;-93
2022/06/03 03:09:13;;;;;;;;;20.80;16.00;29.00;99.90;;;;;;5089293;22;8865;-93
2022/06/03 03:25:03;;;;;;;;;19.80;16.40;29.30;99.90;;;;;;5528889;22;8855;-93
2022/06/03 03:28:06;;;;;;;;;18.80;14.20;29.20;99.90;;;;;;5001305;28;8759;-93
2022/06/03 03:30:48;;;;;;;;;19.60;15.80;29.30;99.90;;;;;;5019233;28;8778;-92
2022/06/03 03:33:57;;;;;;;;;22.80;18.40;29.40;99.90;;;;;;4986117;28;8763;-93
2022/06/03 03:36:42;;;;;;;;;19.00;17.40;29.40;99.90;;;;;;4973388;28;8910;-93
2022/06/03 03:39:44;;;;;;;;;22.75;19.75;29.50;99.90;;;;;;5001714;28;8771;-92
2022/06/03 03:42:37;;;;;;;;;22.60;16.60;29.50;99.90;;;;;;4988091;28;8766;-92
2022/06/03 03:45:23;;;;;;;;;22.20;16.60;29.40;99.90;;;;;;4968779;28;8793;-91
2022/06/03 03:48:23;;;;;;;;;22.00;17.20;29.50;99.90;;;;;;4999746;28;8777;-92
2022/06/03 03:51:29;;;;;;;;;20.25;19.25;29.50;99.90;;;;;;4982398;28;8827;-93
2022/06/03 03:54:13;;;;;;;;;25.00;18.00;29.50;99.90;;;;;;4939780;29;8784;-92
2022/06/03 03:57:16;;;;;;;;;24.60;16.00;29.60;99.90;;;;;;4939506;29;8788;-92
2022/06/03 03:59:49;;;;;;;;;16.40;14.60;29.70;99.90;;;;;;4958803;28;8849;-95
2022/06/03 04:02:38;;;;;;;;;19.40;15.80;29.60;99.90;;;;;;4958603;28;8785;-93
2022/06/03 04:05:41;;;;;;;;;28.40;18.20;29.60;99.90;;;;;;4958263;28;8820;-93
2022/06/03 04:08:29;;;;;;;;;23.20;18.20;29.70;99.90;;;;;;4958537;28;8800;-93
2022/06/03 04:11:05;;;;;;;;;18.80;17.80;29.90;99.90;;;;;;4958532;28;8754;-92
2022/06/03 04:14:08;;;;;;;;;20.40;17.40;29.90;99.90;;;;;;4968659;28;8863;-93
2022/06/03 04:17:02;;;;;;;;;17.60;16.00;30.10;99.90;;;;;;4946219;28;8782;-95
2022/06/03 04:20:09;;;;;;;;;20.20;17.00;30.30;99.90;;;;;;4977783;28;8791;-93
2022/06/03 04:22:48;;;;;;;;;21.25;19.50;30.20;99.90;;;;;;4977763;28;8811;-92
2022/06/03 04:25:42;;;;;;;;;18.60;15.20;30.30;99.90;;;;;;4988552;28;9555;-95
2022/06/03 04:28:39;;;;;;;;;24.40;18.20;30.20;99.90;;;;;;5000156;28;8774;-93
2022/06/03 04:31:23;;;;;;;;;20.20;12.40;30.00;99.90;;;;;;5000407;28;9445;-93
2022/06/03 04:34:13;;;;;;;;;19.60;17.40;30.00;99.90;;;;;;5000567;28;8805;-93
2022/06/03 04:37:04;;;;;;;;;22.40;16.80;30.20;99.90;;;;;;4986869;28;8801;-95
2022/06/03 04:39:52;;;;;;;;;18.40;15.60;30.40;99.90;;;;;;4999524;28;8804;-93
2022/06/03 04:42:52;;;;;;;;;22.80;17.60;30.50;99.90;;;;;;5000734;28;8777;-93
2022/06/03 04:45:55;;;;;;;;;20.60;19.00;30.40;99.90;;;;;;4998759;28;8778;-91
2022/06/03 04:48:54;;;;;;;;;21.00;18.40;30.40;99.90;;;;;;4999791;28;8872;-93
2022/06/03 04:51:45;;;;;;;;;14.80;13.00;30.40;99.90;;;;;;4994211;28;8768;-92
2022/06/03 04:54:44;;;;;;;;;15.40;14.20;30.30;99.90;;;;;;4999044;28;8782;-94
2022/06/03 04:57:29;;;;;;;;;21.00;16.60;30.60;99.90;;;;;;4997564;28;8818;-92
2022/06/03 05:00:20;;;;;;;;;18.00;17.00;30.60;99.90;;;;;;4977832;28;8776;-91
2022/06/03 05:03:17;;;;;;;;;17.80;15.00;30.70;99.90;;;;;;4977786;28;8835;-92
2022/06/03 05:06:11;;;;;;;;;15.20;13.20;30.60;99.90;;;;;;4978200;28;8874;-93
2022/06/03 05:09:05;;;;;;;;;18.60;15.80;30.70;99.90;;;;;;4977812;28;8820;-93
2022/06/03 05:12:03;;;;;;;;;17.80;13.00;30.90;99.90;;;;;;4978750;28;8787;-92
2022/06/03 05:14:54;;;;;;;;;17.80;14.40;31.00;99.90;;;;;;4996865;28;8895;-93
2022/06/03 05:18:13;;;;;;;;;18.60;15.80;31.00;99.90;;;;;;4984019;28;8761;-93
2022/06/03 05:20:49;;;;;;;;;21.75;15.50;31.10;99.90;;;;;;4960947;28;8773;-93
2022/06/03 05:23:22;;;;;;;;;17.60;14.80;30.90;99.90;;;;;;4999471;28;8824;-93
2022/06/03 05:25:55;;;;;;;;;17.40;14.40;30.90;99.90;;;;;;4982688;28;8891;-93
2022/06/03 05:28:40;;;;;;;;;23.80;16.20;31.20;99.90;;;;;;5000513;28;8793;-96
2022/06/03 05:31:15;;;;;;;;;20.60;12.00;31.30;99.90;;;;;;5000466;28;8750;-96
2022/06/03 05:34:12;;;;;;;;;17.80;16.00;31.40;99.90;;;;;;4997270;28;8769;-92
2022/06/03 05:36:57;;;;;;;;;16.80;15.20;31.50;99.90;;;;;;4993556;28;8979;-91
2022/06/03 05:39:49;;;;;;;;;15.00;14.50;31.50;99.90;;;;;;4997199;28;8809;-92
2022/06/03 05:42:49;;;;;;;;;17.00;14.20;31.10;99.90;;;;;;4981106;28;8782;-93
2022/06/03 05:45:24;;;;;;;;;20.00;16.00;31.00;99.90;;;;;;4985744;28;8820;-94
2022/06/03 05:47:58;;;;;;;;;18.00;14.00;31.10;99.90;;;;;;5000906;28;8805;-92
2022/06/03 05:50:35;;;;;;;;;15.40;14.00;31.30;99.90;;;;;;5000212;28;8809;-94
2022/06/03 05:53:20;;;;;;;;;11.80;9.00;31.50;99.90;;;;;;5000944;28;8807;-93
2022/06/03 05:55:59;;;;;;;;;16.20;13.60;31.50;99.90;;;;;;4986710;28;8857;-95
2022/06/03 05:58:44;;;;;;;;;17.80;13.40;31.60;99.90;;;;;;5000824;28;8808;-93
2022/06/03 06:01:23;;;;;;;;;14.60;10.80;31.80;99.90;;;;;;5002830;28;8765;-95
2022/06/03 06:04:00;;;;;;;;;19.20;12.60;31.80;99.60;;;;;;5000920;28;8782;-94
2022/06/03 06:06:35;;;;;;;;;15.60;12.40;32.00;99.90;;;;;;5000171;28;8808;-93
2022/06/03 06:09:08;;;;;;;;;15.80;11.00;31.60;99.90;;;;;;5000622;28;8793;-94
2022/06/03 06:12:02;;;;;;;;;13.80;10.60;31.80;99.90;;;;;;5001363;28;8780;-94
2022/06/03 06:14:33;;;;;;;;;11.40;11.00;32.10;99.90;;;;;;5001123;28;8857;-93
2022/06/03 06:17:37;;;;;;;;;18.20;13.00;31.80;99.40;;;;;;4984362;28;8753;-91
2022/06/03 06:20:12;;;;;;;;;16.80;13.20;31.70;99.50;;;;;;4986627;28;8769;-93
2022/06/03 06:22:48;;;;;;;;;14.20;10.80;31.50;99.80;;;;;;5000184;28;8915;-94
2022/06/03 06:25:23;;;;;;;;;14.60;10.00;31.40;99.90;;;;;;4969491;28;8852;-93
2022/06/03 06:28:04;;;;;;;;;12.20;10.00;31.50;99.90;;;;;;4984953;28;9420;-95
2022/06/03 06:31:01;;;;;;;;;16.20;14.40;31.80;99.90;;;;;;4984660;28;8790;-94
2022/06/03 06:33:31;;;;;;;;;17.00;11.60;32.10;99.90;;;;;;5001120;28;8797;-92
2022/06/03 06:36:16;;;;;;;;;14.80;12.20;32.00;99.60;;;;;;4983627;28;8782;-93
2022/06/03 06:38:56;;;;;;;;;13.20;11.80;32.10;99.90;;;;;;5000367;28;8765;-95
2022/06/03 06:41:42;;;;;;;;;14.20;10.80;32.40;99.90;;;;;;5000451;28;8792;-93
2022/06/03 06:44:24;;;;;;;;;14.00;11.40;32.40;99.90;;;;;;4980839;28;8788;-92
2022/06/03 06:47:00;;;;;;;;;17.40;12.80;32.10;99.90;;;;;;4981967;28;8785;-93
2022/06/03 06:49:33;;;;;;;;;15.40;13.00;31.90;99.90;;;;;;4980751;28;8796;-94
2022/06/03 06:52:05;;;;;;;;;14.60;11.00;31.90;99.90;;;;;;4980411;28;8764;-91
2022/06/03 06:55:22;;;;;;;;;14.60;11.40;32.10;99.60;;;;;;4964199;28;8772;-93
2022/06/03 06:58:04;;;;;;;;;14.80;12.80;32.20;99.90;;;;;;4942679;29;8769;-94
2022/06/03 07:00:36;;;;;;;;;17.80;13.00;32.20;99.90;;;;;;4997862;28;8842;-95
2022/06/03 07:03:15;;;;;;;;;16.40;12.80;32.10;99.90;;;;;;4965401;28;8776;-96
2022/06/03 07:05:52;;;;;;;;;14.00;12.60;32.30;99.90;;;;;;4964915;28;8780;-94
2022/06/03 07:08:27;;;;;;;;;10.00;9.00;32.20;99.90;;;;;;4959834;28;8825;-92
2022/06/03 07:11:27;;;;;;;;;20.50;15.00;32.30;99.60;;;;;;4950577;28;8782;-92
2022/06/03 07:14:04;;;;;;;;;14.60;10.80;32.40;99.70;;;;;;4991581;28;8776;-94
2022/06/03 07:19:50;;;;;;;;;17.80;11.20;32.20;99.50;;;;;;4968848;28;8756;-93
2022/06/03 07:22:29;;;;;;;;;14.60;10.20;32.10;99.90;;;;;;4984881;28;8784;-96
2022/06/03 07:25:12;;;;;;;;;17.20;11.20;32.20;99.40;;;;;;4982178;28;8800;-92
2022/06/03 07:27:53;;;;;;;;;14.20;12.00;32.30;99.90;;;;;;4964378;28;8831;-94
2022/06/03 07:30:37;;;;;;;;;14.00;10.00;32.30;99.10;;;;;;4948576;28;8835;-94
2022/06/03 07:33:10;;;;;;;;;13.80;12.00;32.30;99.50;;;;;;4980464;28;8776;-93
2022/06/03 07:35:57;;;;;;;;;12.20;10.00;32.10;99.80;;;;;;4962970;28;8906;-92
2022/06/03 07:39:02;;;;;;;;;18.00;11.00;32.20;99.70;;;;;;4964588;28;8929;-92
2022/06/03 07:42:07;;;;;;;;;12.00;9.40;32.00;99.90;;;;;;4966032;28;8780;-94
2022/06/03 07:45:11;;;;;;;;;9.00;9.00;31.80;99.70;;;;;;4962578;28;8780;-96
2022/06/03 07:47:37;;;;;;;;;5.60;0.80;32.10;99.90;;;;;;4978763;28;8854;-91
2022/06/03 07:50:06;;;;;;;;;15.20;10.40;32.10;99.60;;;;;;4979193;28;8776;-92
2022/06/03 07:52:48;;;;;;;;;13.00;9.80;32.10;98.90;;;;;;4978779;28;8886;-92
2022/06/03 07:55:25;;;;;;;;;13.00;7.20;32.00;99.90;;;;;;4978261;28;8776;-93
2022/06/03 07:57:58;;;;;;;;;17.60;10.80;31.90;99.80;;;;;;4983175;28;8814;-95
2022/06/03 08:00:25;;;;;;;;;12.20;10.60;32.00;99.90;;;;;;4983391;28;8797;-93
2022/06/03 08:03:24;;;;;;;;;17.60;10.80;32.10;99.20;;;;;;4983167;28;8746;-96
2022/06/03 08:05:59;;;;;;;;;13.40;9.80;32.00;99.00;;;;;;4985548;28;8789;-92
2022/06/03 08:11:24;;;;;;;;;14.20;11.40;32.10;98.70;;;;;;4984650;28;8938;-92
2022/06/03 08:13:52;;;;;;;;;16.20;11.00;32.10;99.70;;;;;;4997978;28;8781;-96
2022/06/03 08:16:26;;;;;;;;;9.75;8.25;32.00;99.30;;;;;;4982395;28;8769;-92
2022/06/03 08:18:58;;;;;;;;;10.00;9.00;32.00;99.30;;;;;;4966586;28;8782;-92
2022/06/03 08:21:49;;;;;;;;;11.25;9.25;32.00;99.90;;;;;;4997524;28;8809;-91
2022/06/03 08:24:17;;;;;;;;;17.00;13.00;32.00;99.90;;;;;;4983291;28;9474;-92
2022/06/03 08:26:45;;;;;;;;;12.80;9.80;32.00;99.90;;;;;;4984792;28;9515;-92
2022/06/03 08:29:12;;;;;;;;;11.60;9.20;32.10;99.90;;;;;;4985205;28;8810;-92
2022/06/03 08:31:39;;;;;;;;;9.40;7.60;32.10;99.70;;;;;;5000782;28;8783;-94
2022/06/03 08:34:08;;;;;;;;;10.50;8.50;32.20;99.50;;;;;;4969960;28;8787;-92
2022/06/03 08:36:37;;;;;;;;;12.40;10.00;32.50;99.60;;;;;;4968722;28;8802;-92
2022/06/03 08:39:31;;;;;;;;;8.40;8.40;32.60;98.60;;;;;;4984938;28;8770;-92
2022/06/03 08:42:30;;;;;;;;;10.60;10.40;32.20;99.30;;;;;;4982779;28;8756;-92
2022/06/03 08:45:18;;;;;;;;;9.00;7.40;32.50;99.40;;;;;;4982850;28;8868;-94
2022/06/03 08:47:58;;;;;;;;;7.20;6.40;32.50;99.30;;;;;;4965728;28;8933;-93
2022/06/03 08:50:29;;;;;;;;;11.20;7.40;32.80;98.70;;;;;;4965260;28;8780;-92
2022/06/03 08:53:01;;;;;;;;;9.40;6.60;32.60;97.90;;;;;;4965605;28;8773;-92
2022/06/03 08:55:36;;;;;;;;;11.60;9.80;32.30;98.50;;;;;;4980872;28;8765;-92
2022/06/03 08:58:22;;;;;;;;;12.40;9.00;32.40;98.90;;;;;;4989099;28;8743;-92
2022/06/03 09:00:58;;;;;;;;;10.20;6.00;32.20;99.00;;;;;;4986933;28;8775;-93
2022/06/03 09:03:25;;;;;;;;;12.00;7.40;32.00;99.90;;;;;;4984742;28;8791;-93
2022/06/03 09:06:28;;;;;;;;;9.20;8.40;32.00;99.90;;;;;;4984493;28;8818;-93
2022/06/03 09:09:00;;;;;;;;;12.40;8.20;32.00;99.40;;;;;;4984123;28;8833;-92
2022/06/03 09:11:50;;;;;;;;;11.00;9.40;31.90;99.10;;;;;;4969065;28;8786;-92
2022/06/03 09:14:21;;;;;;;;;8.40;7.40;31.80;99.90;;;;;;4970584;28;8770;-92
2022/06/03 09:16:48;;;;;;;;;10.80;7.60;31.80;99.90;;;;;;4968596;28;8775;-91
2022/06/03 09:19:39;;;;;;;;;9.20;8.00;32.00;99.70;;;;;;4984257;28;8799;-92
2022/06/03 09:22:12;;;;;;;;;10.80;8.00;32.60;98.70;;;;;;4986075;28;8783;-96
2022/06/03 09:24:40;;;;;;;;;9.80;8.20;32.60;97.60;;;;;;4965189;28;8821;-92
2022/06/03 09:27:08;;;;;;;;;16.40;7.80;32.60;97.90;;;;;;4981094;28;8789;-92
2022/06/03 09:29:37;;;;;;;;;9.60;6.60;32.40;98.40;;;;;;4981428;28;8813;-94
2022/06/03 09:32:06;;;;;;;;;10.00;8.20;32.60;98.00;;;;;;4981701;28;8758;-92
2022/06/03 09:34:40;;;;;;;;;10.50;7.00;32.60;97.50;;;;;;4980776;28;8820;-92
2022/06/03 09:37:20;;;;;;;;;8.80;6.20;32.40;98.20;;;;;;4982990;28;8782;-96
2022/06/03 09:39:48;;;;;;;;;10.00;6.00;32.30;97.60;;;;;;4982366;28;8789;-91
2022/06/03 09:42:15;;;;;;;;;12.25;9.00;32.30;97.70;;;;;;4981022;28;8773;-92
2022/06/03 09:44:41;;;;;;;;;13.00;8.20;32.10;98.40;;;;;;4977373;28;9441;-93
2022/06/03 09:47:08;;;;;;;;;10.60;8.20;32.10;98.40;;;;;;4961175;28;8894;-92
2022/06/03 09:49:35;;;;;;;;;11.20;8.80;32.10;98.70;;;;;;4960966;28;8891;-92
2022/06/03 09:52:03;;;;;;;;;10.40;10.00;32.10;98.80;;;;;;4978147;28;8756;-92
2022/06/03 09:54:40;;;;;;;;;11.25;8.50;32.10;98.90;;;;;;4961884;28;8795;-92
2022/06/03 09:57:29;;;;;;;;;14.25;10.00;32.00;98.80;;;;;;4962500;28;8788;-92
2022/06/03 10:00:08;;;;;;;;;17.00;14.25;32.00;98.90;;;;;;4977787;28;8779;-91
2022/06/03 10:02:34;;;;;;;;;14.00;10.25;32.00;99.40;;;;;;4964105;28;8784;-91
2022/06/03 10:05:02;;;;;;;;;9.50;8.00;32.00;99.20;;;;;;4962711;28;8748;-93
2022/06/03 10:07:28;;;;;;;;;15.00;8.25;32.10;99.40;;;;;;4978450;28;8785;-93
2022/06/03 10:12:50;;;;;;;;;20.75;15.75;32.10;99.30;;;;;;4982985;28;8793;-93
2022/06/03 10:15:40;;;;;;;;;26.75;20.50;32.10;99.70;;;;;;4983918;28;8847;-92
2022/06/03 10:18:12;;;;;;;;;36.25;28.25;32.10;99.90;;;;;;4983862;28;8819;-92
2022/06/03 10:20:38;;;;;;;;;30.25;25.75;32.00;99.90;;;;;;4997574;28;8785;-92
2022/06/03 10:23:08;;;;;;;;;28.75;26.75;31.90;99.90;;;;;;4965955;28;8781;-92
2022/06/03 10:25:39;;;;;;;;;45.00;33.50;31.90;99.90;;;;;;4996505;28;8821;-91
2022/06/03 10:28:07;;;;;;;;;43.00;33.25;31.90;99.90;;;;;;4981895;28;8798;-92
2022/06/03 10:30:34;;;;;;;;;39.50;34.25;31.90;99.90;;;;;;4981100;28;8820;-92
2022/06/03 10:33:02;;;;;;;;;29.50;25.75;31.80;99.90;;;;;;4984431;28;8793;-96
2022/06/03 10:35:31;;;;;;;;;43.50;31.25;31.80;99.90;;;;;;4986011;28;8765;-96
2022/06/03 10:38:00;;;;;;;;;33.25;28.25;31.50;99.90;;;;;;4986287;28;8785;-96
2022/06/03 10:40:27;;;;;;;;;31.75;23.50;31.00;99.90;;;;;;4973799;28;8793;-95
2022/06/03 10:42:55;;;;;;;;;27.25;19.50;30.70;99.90;;;;;;4967340;28;8796;-95
2022/06/03 10:45:37;;;;;;;;;24.75;21.50;30.60;99.90;;;;;;4968125;28;9443;-94
2022/06/03 10:48:19;;;;;;;;;21.50;20.00;30.70;99.90;;;;;;4966086;28;9522;-96
2022/06/03 10:50:46;;;;;;;;;22.00;15.00;30.70;99.90;;;;;;4952793;28;8814;-96
2022/06/03 11:01:56;;;;;;;;;15.00;13.25;30.80;99.90;;;;;;4987659;28;8892;-95
2022/06/03 11:04:37;;;;;;;;;14.75;12.00;30.90;99.90;;;;;;4985442;28;8774;-94
2022/06/03 11:07:24;;;;;;;;;12.50;9.25;31.00;99.90;;;;;;4969474;28;8761;-95
2022/06/03 11:10:02;;;;;;;;;13.25;13.25;30.90;99.90;;;;;;4983302;28;8790;-94
2022/06/03 11:12:29;;;;;;;;;16.50;13.75;30.80;99.90;;;;;;4967733;28;8807;-95
2022/06/03 11:14:56;;;;;;;;;18.00;14.50;30.80;99.90;;;;;;4983725;28;8777;-93
2022/06/03 11:17:25;;;;;;;;;18.25;17.75;30.80;99.90;;;;;;4983372;28;8777;-95
2022/06/03 11:19:56;;;;;;;;;23.50;16.00;30.70;99.90;;;;;;4983264;28;8799;-94
2022/06/03 11:22:40;;;;;;;;;17.25;13.50;30.80;99.90;;;;;;4984216;28;9568;-93
2022/06/03 11:25:27;;;;;;;;;18.75;12.25;30.70;99.90;;;;;;4983721;28;8832;-94
2022/06/03 11:28:05;;;;;;;;;24.25;18.50;30.70;99.90;;;;;;4968157;28;8814;-94
2022/06/03 11:30:56;;;;;;;;;18.75;16.25;30.70;99.90;;;;;;4982816;28;8789;-93
2022/06/03 11:33:36;;;;;;;;;24.50;21.25;30.60;99.90;;;;;;4998630;28;8769;-93
2022/06/03 11:36:11;;;;;;;;;18.25;17.50;30.60;99.90;;;;;;4984569;28;9534;-94
2022/06/03 11:38:46;;;;;;;;;26.25;20.25;30.60;99.90;;;;;;4966929;28;8778;-93
2022/06/03 11:41:49;;;;;;;;;25.75;20.00;30.60;99.90;;;;;;4983226;28;8786;-93
2022/06/03 11:44:30;;;;;;;;;24.00;19.50;30.60;99.90;;;;;;4998596;28;8835;-94
2022/06/03 11:47:22;;;;;;;;;22.00;19.20;30.70;99.90;;;;;;4982871;28;8792;-93
2022/06/03 11:49:51;;;;;;;;;20.50;15.50;30.70;99.90;;;;;;4985114;28;8786;-94
2022/06/03 11:52:18;;;;;;;;;22.50;19.50;30.70;99.90;;;;;;4967201;28;8803;-94
2022/06/03 11:54:45;;;;;;;;;21.50;19.00;30.70;99.90;;;;;;4966273;28;8770;-92
2022/06/03 11:57:12;;;;;;;;;19.50;17.50;30.60;99.90;;;;;;4982087;28;8769;-96
2022/06/03 11:59:57;;;;;;;;;23.00;18.50;30.60;99.90;;;;;;4982710;28;8816;-96
2022/06/03 12:02:34;;;;;;;;;19.75;19.50;30.50;99.90;;;;;;4983510;28;8804;-92
2022/06/03 12:05:18;;;;;;;;;24.25;20.75;30.50;99.90;;;;;;4998806;28;8761;-93
2022/06/03 12:07:48;;;;;;;;;23.50;20.50;30.40;99.90;;;;;;4998256;28;8793;-92
2022/06/03 12:10:41;;;;;;;;;25.00;20.50;30.30;99.90;;;;;;4999488;28;8825;-92
2022/06/03 12:13:31;;;;;;;;;24.25;17.00;30.20;99.90;;;;;;4998182;28;8798;-93
2022/06/03 12:16:10;;;;;;;;;26.50;20.25;30.30;99.90;;;;;;4998844;28;8766;-92
2022/06/03 12:18:37;;;;;;;;;23.50;17.25;30.30;99.90;;;;;;4981638;28;8815;-93
2022/06/03 12:21:13;;;;;;;;;19.00;18.00;30.30;99.90;;;;;;4997672;28;8796;-92
2022/06/03 12:23:41;;;;;;;;;17.25;12.50;30.30;99.90;;;;;;4981661;28;8855;-93
2022/06/03 12:26:13;;;;;;;;;21.75;17.00;30.20;99.90;;;;;;4997870;28;8821;-93
2022/06/03 12:28:41;;;;;;;;;16.50;14.75;30.30;99.90;;;;;;4997342;28;8801;-93
2022/06/03 12:31:08;;;;;;;;;23.75;20.25;30.40;99.90;;;;;;4999305;28;8816;-93
2022/06/03 12:33:45;;;;;;;;;23.75;20.75;30.30;99.90;;;;;;4997699;28;8831;-93
2022/06/03 12:36:50;;;;;;;;;23.00;18.50;30.20;99.90;;;;;;4998002;28;8823;-92
2022/06/03 12:39:20;;;;;;;;;21.00;18.75;30.10;99.90;;;;;;4997983;28;8778;-92
2022/06/03 12:41:46;;;;;;;;;17.75;15.50;30.00;99.90;;;;;;4998407;28;8788;-92
2022/06/03 12:44:38;;;;;;;;;19.00;18.75;30.00;99.90;;;;;;4998312;28;8766;-94
2022/06/03 12:47:35;;;;;;;;;18.25;17.00;30.00;99.90;;;;;;4999483;28;8777;-91
2022/06/03 12:50:05;;;;;;;;;19.50;18.00;29.90;99.90;;;;;;4999120;28;8892;-93
2022/06/03 12:52:31;;;;;;;;;19.25;15.25;29.90;99.90;;;;;;4992302;28;8793;-93
2022/06/03 12:55:17;;;;;;;;;27.25;18.50;29.90;99.90;;;;;;5024796;28;8868;-91
2022/06/03 12:57:49;;;;;;;;;17.25;14.75;30.00;99.90;;;;;;5004751;28;8778;-93
2022/06/03 13:00:19;;;;;;;;;21.25;16.75;30.10;99.90;;;;;;4999089;28;8785;-93
2022/06/03 13:02:58;;;;;;;;;23.00;18.50;30.10;99.90;;;;;;4998028;28;8782;-92
2022/06/03 13:05:53;;;;;;;;;17.00;17.00;30.00;99.90;;;;;;4983156;28;8793;-93
2022/06/03 13:08:29;;;;;;;;;18.80;14.80;30.00;99.90;;;;;;4983675;28;8785;-94
2022/06/03 13:11:08;;;;;;;;;22.50;20.25;30.10;99.90;;;;;;4998344;28;8798;-94
2022/06/03 13:13:47;;;;;;;;;30.75;26.00;30.00;99.90;;;;;;4997299;28;8762;-93
2022/06/03 13:16:33;;;;;;;;;48.25;38.25;30.00;99.90;;;;;;4983304;28;8807;-94
2022/06/03 13:19:18;;;;;;;;;49.50;38.75;30.00;99.90;;;;;;4997708;28;8750;-94
2022/06/03 13:22:04;;;;;;;;;34.00;26.25;29.90;99.90;;;;;;4997203;28;8790;-94
2022/06/03 13:24:41;;;;;;;;;42.50;30.75;29.80;99.90;;;;;;4983402;28;8815;-94
2022/06/03 13:27:10;;;;;;;;;36.00;31.50;29.90;99.90;;;;;;4969561;28;9471;-93
2022/06/03 13:29:53;;;;;;;;;31.75;26.25;29.90;99.90;;;;;;4964839;28;8800;-94
2022/06/03 13:32:35;;;;;;;;;39.25;32.25;29.90;99.90;;;;;;4970592;28;8801;-94
2022/06/03 13:35:32;;;;;;;;;36.50;26.50;29.80;99.90;;;;;;4989955;28;8773;-94
2022/06/03 13:38:16;;;;;;;;;36.75;28.50;29.70;99.90;;;;;;4961895;28;8762;-92
2022/06/03 13:42:57;;;;;;;;;27.00;24.00;29.60;99.90;;;;;;4949376;28;8769;-93
2022/06/03 13:43:29;;;;;;;;;25.25;21.25;29.60;99.90;;;;;;4979539;28;8787;-93
2022/06/03 13:46:00;;;;;;;;;23.40;19.60;29.70;99.90;;;;;;4984613;28;8783;-93
2022/06/03 13:48:44;;;;;;;;;26.00;17.00;29.70;99.90;;;;;;4999957;28;8807;-93
2022/06/03 13:51:36;;;;;;;;;18.25;15.50;29.80;99.90;;;;;;4985378;28;8833;-92
2022/06/03 13:54:23;;;;;;;;;18.25;16.00;29.80;99.90;;;;;;4983910;28;8881;-93
2022/06/03 13:57:14;;;;;;;;;19.50;15.25;29.80;99.90;;;;;;4984166;28;8771;-94
2022/06/03 13:59:41;;;;;;;;;16.50;13.75;29.70;99.90;;;;;;4999955;28;9477;-93
2022/06/03 14:02:37;;;;;;;;;21.50;16.00;29.60;99.90;;;;;;4984056;28;8794;-93
2022/06/03 14:05:15;;;;;;;;;21.50;16.00;29.60;99.90;;;;;;4987956;28;8770;-93
2022/06/03 14:07:54;;;;;;;;;23.00;20.50;29.60;99.90;;;;;;4987972;28;8811;-92
2022/06/03 14:10:24;;;;;;;;;19.25;14.50;29.50;99.90;;;;;;4989296;28;8775;-91
2022/06/03 14:13:42;;;;;;;;;12.40;9.80;29.30;99.90;;;;;;4968874;28;8805;-91
2022/06/03 14:16:19;;;;;;;;;17.80;14.00;29.00;99.90;;;;;;4969340;28;8757;-91
2022/06/03 14:18:49;;;;;;;;;11.80;11.00;29.10;99.90;;;;;;4969364;28;8792;-93
2022/06/03 14:21:39;;;;;;;;;15.20;13.00;28.90;99.90;;;;;;4983913;28;8789;-92
2022/06/03 14:24:29;;;;;;;;;11.00;9.40;29.00;99.90;;;;;;4946433;28;8966;-92
2022/06/03 14:27:30;;;;;;;;;7.20;6.80;29.00;99.90;;;;;;4986276;28;8793;-96
2022/06/03 14:30:31;;;;;;;;;7.40;7.00;29.10;99.90;;;;;;4952544;28;8778;-91
2022/06/03 14:32:58;;;;;;;;;12.00;8.00;29.10;99.90;;;;;;4971052;28;8788;-93
2022/06/03 14:35:33;;;;;;;;;9.60;6.80;29.20;99.90;;;;;;4967878;28;8915;-95
2022/06/03 14:38:11;;;;;;;;;5.40;5.20;29.00;99.90;;;;;;4968154;28;8762;-92
2022/06/03 14:40:39;;;;;;;;;8.60;8.00;28.90;99.90;;;;;;4983558;28;8773;-91
2022/06/03 14:43:06;;;;;;;;;10.60;8.20;28.80;99.90;;;;;;4990693;28;8764;-92
2022/06/03 14:45:36;;;;;;;;;3.80;1.40;29.00;99.90;;;;;;4986579;28;8775;-94